createdAt,value
2022-09-15T00:01:03.240Z,100595.81
2022-09-15T00:03:30.152Z,100601.38
2022-09-15T00:05:57.368Z,100595.81
2022-09-15T00:08:24.788Z,100597.00
2022-09-15T00:11:22.320Z,100595.81
2022-09-15T00:13:49.774Z,100598.59
2022-09-15T00:16:18.175Z,100592.59
2022-09-15T00:18:46.185Z,100600.56
2022-09-15T00:21:17.758Z,100594.19
2022-09-15T00:23:45.740Z,100599.31
2022-09-15T00:26:14.190Z,100592.13
2022-09-15T00:28:41.595Z,100593.34
2022-09-15T00:31:11.405Z,100589.34
2022-09-15T00:33:38.396Z,100595.34
2022-09-15T00:36:08.442Z,100592.53
2022-09-15T00:38:36.218Z,100586.16
2022-09-15T00:41:04.651Z,100596.88
2022-09-15T00:44:26.702Z,100596.09
2022-09-15T00:47:15.677Z,100594.53
2022-09-15T00:49:43.752Z,100592.91
2022-09-15T00:52:19.413Z,100596.50
2022-09-15T00:55:10.417Z,100593.28
2022-09-15T00:57:43.856Z,100600.03
2022-09-15T01:00:14.704Z,100597.66
2022-09-15T01:02:43.955Z,100596.06
2022-09-15T01:05:18.092Z,100595.28
2022-09-15T01:07:59.168Z,100597.69
2022-09-15T01:10:32.440Z,100592.91
2022-09-15T01:13:01.944Z,100594.06
2022-09-15T01:16:13.068Z,100599.63
2022-09-15T01:18:56.868Z,100598.03
2022-09-15T01:21:45.591Z,100599.63
2022-09-15T01:24:41.308Z,100615.50
2022-09-15T01:27:42.168Z,100600.75
2022-09-15T01:30:12.996Z,100617.06
2022-09-15T01:33:04.219Z,100631.03
2022-09-15T01:36:03.679Z,100627.13
2022-09-15T01:38:42.304Z,100628.34
2022-09-15T01:41:17.257Z,100622.81
2022-09-15T01:44:02.155Z,100622.84
2022-09-15T01:46:33.062Z,100622.84
2022-09-15T01:49:02.395Z,100623.66
2022-09-15T01:51:32.037Z,100625.25
2022-09-15T01:54:02.660Z,100631.59
2022-09-15T01:56:29.577Z,100636.34
2022-09-15T01:58:56.954Z,100639.13
2022-09-15T02:01:44.678Z,100635.16
2022-09-15T02:04:18.444Z,100632.38
2022-09-15T02:06:48.076Z,100635.16
2022-09-15T02:09:23.437Z,100627.22
2022-09-15T02:12:14.883Z,100617.66
2022-09-15T02:14:54.109Z,100628.78
2022-09-15T02:17:21.609Z,100629.59
2022-09-15T02:19:56.290Z,100627.19
2022-09-15T02:22:27.994Z,100626.41
2022-09-15T02:25:05.906Z,100627.22
2022-09-15T02:27:41.795Z,100622.41
2022-09-15T02:30:12.159Z,100623.22
2022-09-15T02:32:47.451Z,100621.22
2022-09-15T02:35:16.291Z,100619.25
2022-09-15T02:37:44.070Z,100612.53
2022-09-15T02:40:11.385Z,100615.31
2022-09-15T02:42:39.310Z,100611.72
2022-09-15T02:45:06.834Z,100620.47
2022-09-15T02:47:33.749Z,100617.31
2022-09-15T02:50:00.900Z,100614.94
2022-09-15T02:52:27.679Z,100613.75
2022-09-15T02:54:54.525Z,100608.97
2022-09-15T02:57:21.403Z,100606.97
2022-09-15T03:00:07.115Z,100613.72
2022-09-15T03:02:34.030Z,100618.09
2022-09-15T03:05:00.883Z,100616.53
2022-09-15T03:07:28.646Z,100617.72
2022-09-15T03:09:55.586Z,100626.84
2022-09-15T03:12:22.317Z,100621.66
2022-09-15T03:14:49.321Z,100617.28
2022-09-15T03:17:16.788Z,100618.50
2022-09-15T03:19:44.376Z,100614.94
2022-09-15T03:22:11.380Z,100618.13
2022-09-15T03:24:38.352Z,100622.94
2022-09-15T03:27:05.839Z,100622.19
2022-09-15T03:29:32.779Z,100619.78
2022-09-15T03:31:59.698Z,100625.38
2022-09-15T03:34:26.731Z,100628.16
2022-09-15T03:36:53.622Z,100619.41
2022-09-15T03:39:20.653Z,100627.38
2022-09-15T03:41:47.377Z,100625.34
2022-09-15T03:44:14.197Z,100623.78
2022-09-15T03:46:41.071Z,100622.19
2022-09-15T03:49:08.793Z,100621.00
2022-09-15T03:51:35.666Z,100623.38
2022-09-15T03:54:03.157Z,100619.03
2022-09-15T03:56:32.707Z,100620.19
2022-09-15T03:59:04.261Z,100621.00
2022-09-15T04:01:32.264Z,100625.34
2022-09-15T04:03:59.410Z,100622.56
2022-09-15T04:06:26.872Z,100628.09
2022-09-15T04:08:54.357Z,100630.06
2022-09-15T04:11:22.798Z,100624.47
2022-09-15T04:13:49.854Z,100628.03
2022-09-15T04:16:23.192Z,100617.28
2022-09-15T04:18:52.194Z,100619.69
2022-09-15T04:21:22.915Z,100618.09
2022-09-15T04:23:50.060Z,100615.31
2022-09-15T04:26:22.993Z,100623.28
2022-09-15T04:28:49.761Z,100625.25
2022-09-15T04:31:17.696Z,100624.47
2022-09-15T04:33:45.164Z,100616.53
2022-09-15T04:36:15.051Z,100617.72
2022-09-15T04:38:42.564Z,100622.53
2022-09-15T04:41:12.215Z,100614.59
2022-09-15T04:43:39.025Z,100618.63
2022-09-15T04:46:06.286Z,100615.88
2022-09-15T04:48:33.856Z,100617.53
2022-09-15T04:51:21.464Z,100616.72
2022-09-15T04:53:48.928Z,100621.13
2022-09-15T04:56:21.352Z,100616.75
2022-09-15T04:58:53.939Z,100613.22
2022-09-15T05:01:32.121Z,100613.59
2022-09-15T05:04:03.917Z,100608.03
2022-09-15T05:06:32.476Z,100607.63
2022-09-15T05:08:59.373Z,100603.66
2022-09-15T05:11:27.117Z,100599.28
2022-09-15T05:13:54.911Z,100601.69
2022-09-15T05:16:24.275Z,100594.91
2022-09-15T05:18:53.008Z,100597.72
2022-09-15T05:21:21.508Z,100605.63
2022-09-15T05:23:49.456Z,100599.69
2022-09-15T05:26:19.890Z,100598.09
2022-09-15T05:28:46.715Z,100602.06
2022-09-15T05:31:19.766Z,100606.84
2022-09-15T05:33:48.040Z,100608.81
2022-09-15T05:36:15.211Z,100611.97
2022-09-15T05:38:42.461Z,100608.03
2022-09-15T05:41:11.775Z,100614.41
2022-09-15T05:43:39.885Z,100603.66
2022-09-15T05:46:07.821Z,100603.66
2022-09-15T05:48:35.093Z,100613.19
2022-09-15T05:51:02.834Z,100619.94
2022-09-15T05:53:31.015Z,100624.69
2022-09-15T05:56:00.008Z,100627.44
2022-09-15T05:58:27.770Z,100625.41
2022-09-15T06:00:55.652Z,100626.59
2022-09-15T06:03:27.552Z,100626.97
2022-09-15T06:06:02.603Z,100629.34
2022-09-15T06:08:37.723Z,100632.50
2022-09-15T06:11:07.444Z,100635.66
2022-09-15T06:13:34.761Z,100630.88
2022-09-15T06:16:03.828Z,100640.03
2022-09-15T06:18:30.953Z,100649.94
2022-09-15T06:20:57.785Z,100653.16
2022-09-15T06:23:24.909Z,100640.81
2022-09-15T06:25:51.770Z,100637.63
2022-09-15T06:28:18.577Z,100644.38
2022-09-15T06:30:49.430Z,100638.81
2022-09-15T06:33:16.369Z,100633.59
2022-09-15T06:35:43.096Z,100637.59
2022-09-15T06:38:10.090Z,100638.75
2022-09-15T06:40:37.633Z,100641.09
2022-09-15T06:43:04.561Z,100641.09
2022-09-15T06:45:31.814Z,100637.84
2022-09-15T06:48:20.624Z,100649.34
2022-09-15T06:50:52.887Z,100643.38
2022-09-15T06:53:20.343Z,100637.38
2022-09-15T06:55:47.223Z,100646.19
2022-09-15T06:58:13.969Z,100649.41
2022-09-15T07:00:40.885Z,100639.91
2022-09-15T07:03:07.931Z,100637.56
2022-09-15T07:05:35.090Z,100640.41
2022-09-15T07:08:02.872Z,100635.66
2022-09-15T07:10:29.831Z,100642.03
2022-09-15T07:12:56.754Z,100646.03
2022-09-15T07:15:25.973Z,100660.34
2022-09-15T07:17:53.051Z,100651.16
2022-09-15T07:20:19.864Z,100650.75
2022-09-15T07:22:46.794Z,100653.53
2022-09-15T07:25:13.801Z,100661.44
2022-09-15T07:27:40.595Z,100664.22
2022-09-15T07:30:08.629Z,100663.00
2022-09-15T07:32:35.460Z,100663.28
2022-09-15T07:35:02.581Z,100666.81
2022-09-15T07:37:29.633Z,100667.16
2022-09-15T07:39:56.554Z,100661.56
2022-09-15T07:42:23.484Z,100661.13
2022-09-15T07:44:50.293Z,100677.00
2022-09-15T07:47:17.320Z,100678.88
2022-09-15T07:49:44.147Z,100677.56
2022-09-15T07:52:10.986Z,100684.78
2022-09-15T07:54:37.953Z,100681.53
2022-09-15T07:57:06.453Z,100676.47
2022-09-15T07:59:33.400Z,100680.59
2022-09-15T08:02:00.651Z,100689.22
2022-09-15T08:04:27.630Z,100696.72
2022-09-15T08:06:54.655Z,100706.03
2022-09-15T08:09:21.900Z,100712.75
2022-09-15T08:11:48.694Z,100703.09
2022-09-15T08:14:15.438Z,100701.13
2022-09-15T08:16:42.445Z,100710.56
2022-09-15T08:19:09.186Z,100707.97
2022-09-15T08:21:35.973Z,100718.28
2022-09-15T08:24:03.282Z,100714.41
2022-09-15T08:26:31.118Z,100722.41
2022-09-15T08:28:58.337Z,100729.66
2022-09-15T08:31:25.876Z,100733.63
2022-09-15T08:33:54.748Z,100736.41
2022-09-15T08:36:21.901Z,100733.66
2022-09-15T08:38:49.371Z,100733.91
2022-09-15T08:41:22.279Z,100730.53
2022-09-15T08:44:08.521Z,100730.31
2022-09-15T08:46:44.314Z,100742.72
2022-09-15T08:49:47.448Z,100739.56
2022-09-15T08:52:20.638Z,100739.75
2022-09-15T08:54:51.656Z,100743.13
2022-09-15T08:57:22.607Z,100741.97
2022-09-15T08:59:49.456Z,100746.00
2022-09-15T09:02:45.782Z,100756.97
2022-09-15T09:05:32.768Z,100754.75
2022-09-15T09:08:07.382Z,100767.28
2022-09-15T09:10:43.400Z,100755.31
2022-09-15T09:13:35.753Z,100761.28
2022-09-15T09:16:50.942Z,100752.88
2022-09-15T09:19:36.174Z,100753.09
2022-09-15T09:22:12.302Z,100747.38
2022-09-15T09:24:51.577Z,100744.59
2022-09-15T09:27:23.992Z,100744.28
2022-09-15T09:30:18.749Z,100752.41
2022-09-15T09:32:54.110Z,100752.06
2022-09-15T09:35:38.011Z,100755.84
2022-09-15T09:38:04.912Z,100754.03
2022-09-15T09:40:33.775Z,100750.81
2022-09-15T09:43:01.424Z,100749.38
2022-09-15T09:45:28.671Z,100743.00
2022-09-15T09:48:02.903Z,100752.56
2022-09-15T09:50:34.892Z,100775.59
2022-09-15T09:53:26.351Z,100772.53
2022-09-15T09:55:55.329Z,100777.81
2022-09-15T09:58:25.531Z,100769.53
2022-09-15T10:00:53.052Z,100771.97
2022-09-15T10:03:30.607Z,100769.34
2022-09-15T10:06:06.327Z,100774.22
2022-09-15T10:08:35.799Z,100774.94
2022-09-15T10:11:11.732Z,100764.91
2022-09-15T10:13:52.730Z,100769.41
2022-09-15T10:16:20.693Z,100769.63
2022-09-15T10:18:54.140Z,100762.50
2022-09-15T10:21:25.470Z,100774.59
2022-09-15T10:23:52.393Z,100775.66
2022-09-15T10:26:29.595Z,100770.53
2022-09-15T10:29:13.418Z,100767.31
2022-09-15T10:31:41.807Z,100765.59
2022-09-15T10:34:25.355Z,100769.25
2022-09-15T10:36:55.101Z,100760.00
2022-09-15T10:39:48.495Z,100760.72
2022-09-15T10:42:36.889Z,100776.94
2022-09-15T10:45:16.197Z,100764.63
2022-09-15T10:48:03.337Z,100766.44
2022-09-15T10:50:40.108Z,100786.41
2022-09-15T10:53:30.025Z,100767.81
2022-09-15T10:56:15.174Z,100771.88
2022-09-15T10:59:12.752Z,100770.69
2022-09-15T11:02:02.920Z,100769.00
2022-09-15T11:04:40.542Z,100771.06
2022-09-15T11:07:27.453Z,100768.69
2022-09-15T11:10:29.966Z,100767.97
2022-09-15T11:13:16.924Z,100770.63
2022-09-15T11:16:14.924Z,100760.53
2022-09-15T11:19:16.640Z,100772.94
2022-09-15T11:21:50.727Z,100765.47
2022-09-15T11:24:31.841Z,100767.22
2022-09-15T11:27:11.989Z,100776.28
2022-09-15T11:29:47.645Z,100772.44
2022-09-15T11:32:38.188Z,100769.50
2022-09-15T11:35:15.049Z,100769.06
2022-09-15T11:37:48.917Z,100776.31
2022-09-15T11:40:22.099Z,100766.06
2022-09-15T11:42:55.140Z,100768.56
2022-09-15T11:48:17.735Z,100777.25
2022-09-15T11:50:49.130Z,100785.75
2022-09-15T11:53:27.875Z,100785.66
2022-09-15T11:55:57.548Z,100790.06
2022-09-15T11:58:41.399Z,100790.34
2022-09-15T12:01:17.273Z,100785.34
2022-09-15T12:03:56.848Z,100795.81
2022-09-15T12:06:33.010Z,100790.63
2022-09-15T12:09:02.188Z,100797.56
2022-09-15T12:11:31.863Z,100799.16
2022-09-15T12:14:00.102Z,100794.72
2022-09-15T12:16:29.128Z,100797.56
2022-09-15T12:19:10.683Z,100804.38
2022-09-15T12:21:56.284Z,100808.34
2022-09-15T12:24:23.420Z,100812.44
2022-09-15T12:26:50.595Z,100808.22
2022-09-15T12:29:26.507Z,100813.78
2022-09-15T12:32:19.942Z,100817.13
2022-09-15T12:35:26.052Z,100812.69
2022-09-15T12:38:00.560Z,100807.78
2022-09-15T12:40:30.633Z,100816.25
2022-09-15T12:42:57.734Z,100806.41
2022-09-15T12:45:28.742Z,100799.44
2022-09-15T12:48:01.926Z,100802.03
2022-09-15T12:50:36.243Z,100814.84
2022-09-15T12:53:17.898Z,100817.75
2022-09-15T12:55:52.387Z,100820.63
2022-09-15T12:58:27.982Z,100831.78
2022-09-15T13:01:24.551Z,100824.16
2022-09-15T13:04:13.088Z,100820.66
2022-09-15T13:06:40.114Z,100815.03
2022-09-15T13:09:07.333Z,100830.47
2022-09-15T13:11:37.616Z,100822.50
2022-09-15T13:14:07.467Z,100829.81
2022-09-15T13:16:40.218Z,100816.69
2022-09-15T13:19:25.391Z,100824.69
2022-09-15T13:22:31.112Z,100828.28
2022-09-15T13:25:02.269Z,100825.41
2022-09-15T13:27:45.370Z,100815.78
2022-09-15T13:30:24.298Z,100817.38
2022-09-15T13:33:12.537Z,100812.06
2022-09-15T13:35:49.891Z,100824.91
2022-09-15T13:38:39.595Z,100811.69
2022-09-15T13:41:18.480Z,100818.19
2022-09-15T13:44:07.118Z,100814.06
2022-09-15T13:46:39.698Z,100808.94
2022-09-15T13:49:43.366Z,100801.31
2022-09-15T13:52:32.332Z,100813.19
2022-09-15T13:55:14.608Z,100809.31
2022-09-15T14:00:48.206Z,100804.31
2022-09-15T14:03:24.040Z,100810.78
2022-09-15T14:05:51.607Z,100811.47
2022-09-15T14:08:26.818Z,100820.53
2022-09-15T14:10:59.784Z,100825.06
2022-09-15T14:13:29.031Z,100821.41
2022-09-15T14:16:09.082Z,100823.53
2022-09-15T14:18:43.969Z,100812.78
2022-09-15T14:21:17.487Z,100811.25
2022-09-15T14:23:47.065Z,100806.50
2022-09-15T14:26:16.704Z,100808.38
2022-09-15T14:28:51.115Z,100809.50
2022-09-15T14:31:27.571Z,100814.53
2022-09-15T14:33:54.595Z,100814.75
2022-09-15T14:36:25.387Z,100810.56
2022-09-15T14:39:16.942Z,100808.16
2022-09-15T14:41:43.968Z,100815.13
2022-09-15T14:47:20.049Z,100805.25
2022-09-15T14:49:47.523Z,100804.91
2022-09-15T14:52:30.780Z,100809.19
2022-09-15T14:55:03.603Z,100815.88
2022-09-15T14:57:34.003Z,100813.88
2022-09-15T15:00:07.248Z,100810.63
2022-09-15T15:03:06.861Z,100813.88
2022-09-15T15:05:40.742Z,100810.09
2022-09-15T15:08:13.595Z,100801.69
2022-09-15T15:10:41.441Z,100811.34
2022-09-15T15:13:15.387Z,100808.94
2022-09-15T15:15:43.322Z,100808.34
2022-09-15T15:18:39.996Z,100813.13
2022-09-15T15:21:28.233Z,100811.25
2022-09-15T15:23:55.384Z,100803.13
2022-09-15T15:26:26.313Z,100806.09
2022-09-15T15:28:53.265Z,100805.91
2022-09-15T15:31:23.693Z,100806.28
2022-09-15T15:34:05.430Z,100804.00
2022-09-15T15:36:36.034Z,100806.88
2022-09-15T15:39:09.565Z,100801.31
2022-09-15T15:41:42.224Z,100818.09
2022-09-15T15:44:15.400Z,100826.91
2022-09-15T15:46:48.550Z,100858.88
2022-09-15T15:49:16.414Z,100854.72
2022-09-15T15:51:43.915Z,100845.44
2022-09-15T15:54:10.925Z,100833.00
2022-09-15T15:56:38.198Z,100843.28
2022-09-15T15:59:05.920Z,100833.03
2022-09-15T16:01:33.453Z,100828.31
2022-09-15T16:04:00.691Z,100817.69
2022-09-15T16:06:27.704Z,100821.69
2022-09-15T16:08:58.638Z,100820.13
2022-09-15T16:11:25.783Z,100820.91
2022-09-15T16:13:53.359Z,100820.81
2022-09-15T16:16:23.729Z,100824.25
2022-09-15T16:18:51.665Z,100820.66
2022-09-15T16:21:36.739Z,100819.06
2022-09-15T16:24:05.389Z,100820.69
2022-09-15T16:26:35.682Z,100814.69
2022-09-15T16:29:02.638Z,100820.28
2022-09-15T16:31:30.701Z,100823.91
2022-09-15T16:33:58.002Z,100827.19
2022-09-15T16:36:26.243Z,100836.03
2022-09-15T16:38:53.864Z,100840.78
2022-09-15T16:41:23.366Z,100828.84
2022-09-15T16:43:50.251Z,100828.47
2022-09-15T16:46:17.740Z,100827.28
2022-09-15T16:48:47.248Z,100830.84
2022-09-15T16:51:25.239Z,100827.25
2022-09-15T16:53:54.149Z,100823.28
2022-09-15T16:56:21.063Z,100828.44
2022-09-15T16:58:48.017Z,100830.44
2022-09-15T17:01:19.863Z,100822.91
2022-09-15T17:03:48.136Z,100823.28
2022-09-15T17:06:17.697Z,100830.41
2022-09-15T17:08:45.417Z,100828.00
2022-09-15T17:11:16.644Z,100828.38
2022-09-15T17:13:44.862Z,100824.78
2022-09-15T17:16:15.098Z,100831.09
2022-09-15T17:18:42.283Z,100821.53
2022-09-15T17:21:11.569Z,100825.47
2022-09-15T17:23:40.734Z,100817.13
2022-09-15T17:26:13.154Z,100815.13
2022-09-15T17:28:41.294Z,100819.13
2022-09-15T17:31:23.316Z,100809.59
2022-09-15T17:33:51.380Z,100810.78
2022-09-15T17:36:18.719Z,100815.56
2022-09-15T17:38:46.253Z,100817.50
2022-09-15T17:41:20.594Z,100815.88
2022-09-15T17:43:47.771Z,100815.03
2022-09-15T17:46:14.909Z,100815.81
2022-09-15T17:48:42.202Z,100820.19
2022-09-15T17:51:15.126Z,100815.81
2022-09-15T17:53:42.986Z,100824.47
2022-09-15T17:56:09.937Z,100824.41
2022-09-15T17:58:36.859Z,100819.59
2022-09-15T18:01:04.062Z,100821.25
2022-09-15T18:03:34.922Z,100816.41
2022-09-15T18:06:05.426Z,100817.19
2022-09-15T18:08:35.903Z,100824.00
2022-09-15T18:11:04.179Z,100831.16
2022-09-15T18:13:31.992Z,100846.59
2022-09-15T18:16:04.314Z,100844.56
2022-09-15T18:18:31.839Z,100838.59
2022-09-15T18:20:58.952Z,100837.03
2022-09-15T18:23:29.518Z,100832.63
2022-09-15T18:25:57.257Z,100836.88
2022-09-15T18:28:24.158Z,100838.00
2022-09-15T18:30:51.705Z,100828.41
2022-09-15T18:33:25.919Z,100825.59
2022-09-15T18:35:55.826Z,100835.75
2022-09-15T18:38:23.421Z,100830.22
2022-09-15T18:40:56.023Z,100827.91
2022-09-15T18:43:25.514Z,100835.06
2022-09-15T18:45:55.154Z,100839.91
2022-09-15T18:48:22.333Z,100857.41
2022-09-15T18:50:49.213Z,100846.25
2022-09-15T18:53:16.092Z,100849.25
2022-09-15T18:55:43.806Z,100850.34
2022-09-15T18:58:11.966Z,100845.88
2022-09-15T19:00:39.038Z,100850.94
2022-09-15T19:03:09.369Z,100851.34
2022-09-15T19:05:36.421Z,100847.31
2022-09-15T19:08:04.014Z,100859.91
2022-09-15T19:10:31.655Z,100841.69
2022-09-15T19:12:58.832Z,100853.97
2022-09-15T19:15:26.107Z,100856.31
2022-09-15T19:17:53.405Z,100845.16
2022-09-15T19:20:20.368Z,100848.03
2022-09-15T19:22:47.673Z,100845.72
2022-09-15T19:25:14.940Z,100843.44
2022-09-15T19:27:41.917Z,100843.13
2022-09-15T19:30:10.465Z,100852.31
2022-09-15T19:32:38.611Z,100850.72
2022-09-15T19:35:06.168Z,100846.41
2022-09-15T19:37:38.169Z,100839.69
2022-09-15T19:40:09.260Z,100838.53
2022-09-15T19:42:38.172Z,100838.53
2022-09-15T19:45:06.046Z,100838.09
2022-09-15T19:47:33.075Z,100835.75
2022-09-15T19:49:59.983Z,100830.22
2022-09-15T19:52:28.426Z,100842.94
2022-09-15T19:54:55.587Z,100854.88
2022-09-15T19:57:23.192Z,100847.81
2022-09-15T19:59:50.910Z,100837.13
2022-09-15T20:02:18.095Z,100845.38
2022-09-15T20:04:44.962Z,100845.31
2022-09-15T20:07:12.866Z,100840.09
2022-09-15T20:09:39.978Z,100848.47
2022-09-15T20:12:07.111Z,100851.72
2022-09-15T20:14:34.183Z,100858.50
2022-09-15T20:17:02.033Z,100859.66
2022-09-15T20:19:29.935Z,100854.03
2022-09-15T20:21:56.947Z,100848.03
2022-09-15T20:24:24.878Z,100846.69
2022-09-15T20:26:51.871Z,100851.44
2022-09-15T20:29:19.446Z,100850.97
2022-09-15T20:31:47.012Z,100845.78
2022-09-15T20:34:14.072Z,100852.06
2022-09-15T20:36:41.155Z,100852.81
2022-09-15T20:39:13.377Z,100850.41
2022-09-15T20:41:42.280Z,100849.56
2022-09-15T20:44:12.031Z,100846.38
2022-09-15T20:46:39.444Z,100849.50
2022-09-15T20:49:06.959Z,100847.03
2022-09-15T20:51:34.340Z,100849.31
2022-09-15T20:54:04.381Z,100848.00
2022-09-15T20:56:34.769Z,100855.44
2022-09-15T20:59:03.781Z,100854.56
2022-09-15T21:01:35.565Z,100853.75
2022-09-15T21:04:02.649Z,100853.63
2022-09-15T21:06:31.808Z,100850.72
2022-09-15T21:08:58.907Z,100854.25
2022-09-15T21:11:27.534Z,100850.75
2022-09-15T21:13:55.490Z,100853.06
2022-09-15T21:16:25.223Z,100853.00
2022-09-15T21:18:53.426Z,100864.91
2022-09-15T21:21:23.205Z,100863.41
2022-09-15T21:23:53.279Z,100866.28
2022-09-15T21:26:25.756Z,100863.53
2022-09-15T21:28:53.828Z,100857.59
2022-09-15T21:31:28.751Z,100854.47
2022-09-15T21:33:56.589Z,100849.38
2022-09-15T21:36:25.931Z,100849.72
2022-09-15T21:38:54.777Z,100851.06
2022-09-15T21:41:24.457Z,100863.41
2022-09-15T21:43:58.156Z,100865.00
2022-09-15T21:46:29.543Z,100869.88
2022-09-15T21:49:00.050Z,100867.94
2022-09-15T21:51:31.211Z,100871.91
2022-09-15T21:53:59.803Z,100875.25
2022-09-15T21:56:29.179Z,100890.34
2022-09-15T21:58:57.237Z,100890.31
2022-09-15T22:01:28.162Z,100887.13
2022-09-15T22:03:56.746Z,100883.59
2022-09-15T22:06:30.606Z,100881.25
2022-09-15T22:08:59.325Z,100880.47
2022-09-15T22:11:26.536Z,100873.38
2022-09-15T22:13:53.956Z,100871.81
2022-09-15T22:16:23.696Z,100872.97
2022-09-15T22:18:51.173Z,100873.44
2022-09-15T22:21:29.743Z,100874.97
2022-09-15T22:23:59.281Z,100867.38
2022-09-15T22:26:29.128Z,100859.50
2022-09-15T22:28:58.429Z,100859.13
2022-09-15T22:31:26.802Z,100858.31
2022-09-15T22:33:53.855Z,100856.69
2022-09-15T22:36:28.641Z,100849.94
2022-09-15T22:38:56.989Z,100855.44
2022-09-15T22:41:27.405Z,100850.66
2022-09-15T22:43:54.222Z,100849.91
2022-09-15T22:46:21.207Z,100845.91
2022-09-15T22:48:48.238Z,100845.47
2022-09-15T22:51:15.878Z,100849.41
2022-09-15T22:53:43.076Z,100841.84
2022-09-15T22:56:17.239Z,100844.66
2022-09-15T22:58:44.154Z,100849.84
2022-09-15T23:01:22.169Z,100859.38
2022-09-15T23:03:53.850Z,100850.25
2022-09-15T23:06:22.060Z,100851.75
2022-09-15T23:08:57.575Z,100848.13
2022-09-15T23:11:26.457Z,100847.72
2022-09-15T23:13:54.397Z,100853.19
2022-09-15T23:16:22.442Z,100843.59
2022-09-15T23:18:50.130Z,100852.66
2022-09-15T23:21:17.350Z,100850.66
2022-09-15T23:23:47.431Z,100849.50
2022-09-15T23:26:16.130Z,100851.50
2022-09-15T23:28:42.987Z,100841.59
2022-09-15T23:31:13.830Z,100839.66
2022-09-15T23:33:41.676Z,100847.63
2022-09-15T23:36:11.826Z,100855.19
2022-09-15T23:38:40.158Z,100848.91
2022-09-15T23:41:08.365Z,100842.50
2022-09-15T23:43:35.353Z,100844.06
2022-09-15T23:46:03.292Z,100850.00
2022-09-15T23:48:33.689Z,100844.88
2022-09-15T23:51:00.857Z,100845.66
2022-09-15T23:53:28.196Z,100849.25
2022-09-15T23:55:55.259Z,100842.84
2022-09-15T23:58:22.096Z,100845.22
